Time;durP1;ratioP1;P1;durP2;ratioP2;P2;SDS_P1;SDS_P2;PMS_P1;PMS_P2;Temp;Humidity;BMP_temperature;BMP_pressure;BME280_temperature;BME280_humidity;BME280_pressure;Samples;Min_cycle;Max_cycle;Signal;HPM_P1;HPM_P2
2023/07/08 00:02:10;;;;;;;6.07;3.53;;;;;;;20.23;61.58;101565.78;5053240;28;20025;-72
2023/07/08 00:04:36;;;;;;;7.20;3.78;;;;;;;20.17;62.30;101568.75;5057177;28;20385;-73
2023/07/08 00:07:01;;;;;;;7.25;3.70;;;;;;;20.16;62.41;101556.47;5051061;28;20029;-73
2023/07/08 00:09:26;;;;;;;6.25;3.75;;;;;;;20.07;61.11;101560.44;5052714;28;20029;-73
2023/07/08 00:11:52;;;;;;;7.32;3.70;;;;;;;20.01;62.99;101558.13;5051738;28;20238;-72
2023/07/08 00:14:17;;;;;;;6.03;3.50;;;;;;;20.00;62.80;101564.34;5048862;28;20372;-73
2023/07/08 00:16:43;;;;;;;7.13;3.58;;;;;;;20.00;63.52;101560.84;5049511;28;20028;-72
2023/07/08 00:19:10;;;;;;;4.20;3.38;;;;;;;19.94;64.48;101561.16;5058177;28;20029;-73
2023/07/08 00:21:35;;;;;;;5.45;3.55;;;;;;;19.90;65.06;101555.16;5048890;28;20096;-73
2023/07/08 00:24:01;;;;;;;6.05;3.95;;;;;;;19.81;63.23;101555.63;5052949;28;20033;-73
2023/07/08 00:26:28;;;;;;;4.93;3.90;;;;;;;19.78;63.75;101553.13;5047556;28;20468;-73
2023/07/08 00:28:54;;;;;;;7.97;4.15;;;;;;;19.68;64.11;101558.03;5046881;28;20033;-73
2023/07/08 00:31:23;;;;;;;6.35;3.92;;;;;;;19.67;66.00;101563.41;5051562;28;20021;-73
2023/07/08 00:33:55;;;;;;;6.10;4.18;;;;;;;19.56;67.74;101558.63;5044615;28;20032;-73
2023/07/08 00:36:21;;;;;;;10.00;4.60;;;;;;;19.57;67.58;101547.13;5051753;28;20028;-72
2023/07/08 00:38:46;;;;;;;4.85;4.00;;;;;;;19.52;66.49;101546.47;5051997;28;20032;-73
2023/07/08 00:41:34;;;;;;;5.93;3.67;;;;;;;19.54;67.03;101545.47;5051835;28;20025;-72
2023/07/08 00:44:00;;;;;;;5.35;3.60;;;;;;;19.45;68.47;101543.28;5050647;28;20033;-72
2023/07/08 00:46:31;;;;;;;6.38;3.72;;;;;;;19.46;67.88;101544.16;5054424;28;20028;-72
2023/07/08 00:49:18;;;;;;;4.43;3.75;;;;;;;19.42;69.81;101544.31;5054713;28;20040;-72
2023/07/08 00:51:43;;;;;;;4.82;3.97;;;;;;;19.38;69.96;101537.44;5050963;28;20138;-72
2023/07/08 00:54:12;;;;;;;6.60;4.20;;;;;;;19.28;70.48;101530.91;5051268;28;20484;-73
2023/07/08 00:56:46;;;;;;;7.25;3.97;;;;;;;19.07;70.37;101516.09;5050282;28;20049;-72
2023/07/08 00:59:34;;;;;;;7.60;4.07;;;;;;;19.13;71.08;101537.81;5052027;28;20033;-72
2023/07/08 01:02:03;;;;;;;6.93;4.20;;;;;;;19.05;70.65;101539.94;5051556;28;20036;-73
2023/07/08 01:04:34;;;;;;;5.40;4.00;;;;;;;19.02;70.77;101533.94;5046821;28;20036;-73
2023/07/08 01:07:03;;;;;;;6.55;3.95;;;;;;;18.93;72.89;101538.75;5052204;28;20029;-73
2023/07/08 01:09:36;;;;;;;8.70;4.38;;;;;;;18.88;72.94;101537.25;5050923;28;20021;-73
2023/07/08 01:12:05;;;;;;;4.88;4.28;;;;;;;18.86;73.13;101533.81;5055431;28;20159;-72
2023/07/08 01:14:34;;;;;;;7.75;4.32;;;;;;;18.83;73.84;101534.81;5058556;28;20044;-72
2023/07/08 01:17:00;;;;;;;6.18;3.88;;;;;;;18.70;72.69;101531.88;5051412;28;20641;-72
2023/07/08 01:19:33;;;;;;;5.13;4.05;;;;;;;18.69;72.07;101542.50;5056204;28;20072;-72
2023/07/08 01:22:00;;;;;;;6.78;4.45;;;;;;;18.72;72.55;101537.09;5055488;28;20085;-73
2023/07/08 01:24:29;;;;;;;5.95;4.15;;;;;;;18.65;72.39;101533.00;5044889;28;20060;-73
2023/07/08 01:26:55;;;;;;;7.30;4.28;;;;;;;18.63;72.58;101527.78;5057486;28;20037;-73
2023/07/08 01:29:20;;;;;;;4.63;3.90;;;;;;;18.60;73.39;101524.44;5066050;28;20060;-72
2023/07/08 01:31:48;;;;;;;5.40;4.88;;;;;;;18.49;71.16;101523.16;5057674;28;20100;-73
2023/07/08 01:34:15;;;;;;;5.68;4.80;;;;;;;18.57;73.13;101519.28;5054423;28;20028;-73
2023/07/08 01:36:46;;;;;;;6.20;4.68;;;;;;;18.61;73.59;101528.81;5052967;28;20032;-72
2023/07/08 01:39:14;;;;;;;6.72;4.35;;;;;;;18.55;72.84;101523.81;5054901;28;20158;-72
2023/07/08 01:41:39;;;;;;;7.43;5.00;;;;;;;18.59;73.74;101520.94;5058125;28;20033;-73
2023/07/08 01:44:05;;;;;;;7.13;4.63;;;;;;;18.43;73.63;101510.22;5061673;28;20040;-73
2023/07/08 01:46:31;;;;;;;6.47;4.38;;;;;;;18.49;73.36;101535.50;5056576;28;20108;-73
2023/07/08 01:49:01;;;;;;;8.50;4.95;;;;;;;18.54;74.00;101528.22;5054162;28;20032;-72
2023/07/08 01:51:27;;;;;;;5.22;4.70;;;;;;;18.46;73.71;101519.78;5057558;28;20128;-73
2023/07/08 01:53:53;;;;;;;5.72;4.70;;;;;;;18.45;73.26;101523.38;5048741;28;20040;-72
2023/07/08 01:56:18;;;;;;;8.25;4.70;;;;;;;18.51;73.27;101511.66;5057581;28;20021;-73
2023/07/08 01:58:43;;;;;;;7.43;4.90;;;;;;;18.44;74.51;101506.69;5059266;28;20032;-72
2023/07/08 02:01:09;;;;;;;12.48;5.43;;;;;;;18.40;74.09;101497.16;5060000;28;20036;-72
2023/07/08 02:03:35;;;;;;;7.05;5.20;;;;;;;18.40;73.07;101507.72;5062888;28;20025;-73
2023/07/08 02:06:01;;;;;;;7.88;5.28;;;;;;;18.42;73.21;101511.16;5053760;28;20029;-73
2023/07/08 02:08:26;;;;;;;7.18;5.53;;;;;;;18.40;73.01;101494.53;5062067;28;20499;-73
2023/07/08 02:10:55;;;;;;;8.35;5.22;;;;;;;18.42;73.98;101508.50;5059846;28;20032;-73
2023/07/08 02:13:21;;;;;;;6.10;4.97;;;;;;;18.41;73.62;101501.53;5063726;28;20460;-72
2023/07/08 02:15:47;;;;;;;8.82;5.47;;;;;;;18.37;74.34;101493.81;5060402;28;20079;-72
2023/07/08 02:18:13;;;;;;;7.40;5.50;;;;;;;18.35;74.04;101485.13;5062358;28;20021;-72
2023/07/08 02:20:38;;;;;;;8.60;6.00;;;;;;;18.30;74.43;101477.41;5059783;28;20365;-72
2023/07/08 02:23:03;;;;;;;8.02;6.18;;;;;;;18.34;74.43;101478.09;5056488;28;20052;-72
2023/07/08 02:25:29;;;;;;;6.05;5.45;;;;;;;18.32;73.46;101475.56;5056465;28;20107;-72
2023/07/08 02:27:56;;;;;;;5.68;4.95;;;;;;;18.29;75.29;101482.75;5058839;28;20021;-73
2023/07/08 02:30:23;;;;;;;6.43;5.00;;;;;;;18.24;74.56;101480.31;5056109;28;20119;-72
2023/07/08 02:32:56;;;;;;;9.27;5.05;;;;;;;18.21;75.31;101475.16;5067187;28;20124;-73
2023/07/08 02:35:21;;;;;;;;;;;;;;;18.24;72.47;101465.31;5064257;28;20233;-72
2023/07/08 02:37:46;;;;;;;7.00;4.43;;;;;;;18.15;73.95;101462.28;5059535;28;20011;-72
2023/07/08 02:40:14;;;;;;;6.75;4.40;;;;;;;18.11;73.99;101465.97;5058909;28;20371;-73
2023/07/08 02:42:39;;;;;;;8.23;4.68;;;;;;;18.05;76.88;101453.91;5059296;28;20040;-73
2023/07/08 02:45:05;;;;;;;5.47;4.40;;;;;;;18.04;76.74;101462.72;5072398;28;20387;-72
2023/07/08 02:47:30;;;;;;;5.75;4.18;;;;;;;17.98;76.43;101465.66;5053314;28;20033;-72
2023/07/08 02:49:55;;;;;;;5.75;4.35;;;;;;;17.95;76.30;101465.78;5063759;28;20036;-72
2023/07/08 02:52:21;;;;;;;7.70;5.20;;;;;;;17.94;76.61;101474.63;5055577;28;20033;-73
2023/07/08 02:54:46;;;;;;;7.28;4.65;;;;;;;17.92;77.23;101474.72;5055575;28;20465;-73
2023/07/08 02:57:11;;;;;;;7.43;4.88;;;;;;;17.88;77.91;101480.16;5060100;28;20029;-72
2023/07/08 02:59:37;;;;;;;6.45;4.28;;;;;;;17.83;78.01;101471.63;5054814;28;20025;-73
2023/07/08 03:02:02;;;;;;;5.32;4.40;;;;;;;17.83;78.66;101490.09;5067573;28;20075;-72
2023/07/08 03:04:28;;;;;;;8.40;4.30;;;;;;;17.80;79.46;101487.56;5059273;28;20027;-72
2023/07/08 03:06:53;;;;;;;5.15;4.20;;;;;;;17.73;79.15;101484.31;5063219;28;20023;-72
2023/07/08 03:09:18;;;;;;;5.47;4.53;;;;;;;17.71;80.42;101487.00;5054490;28;20020;-72
2023/07/08 03:11:43;;;;;;;7.63;4.43;;;;;;;17.64;79.53;101487.34;5063168;28;20021;-72
2023/07/08 03:14:09;;;;;;;7.03;5.10;;;;;;;17.59;78.41;101489.28;5057790;28;20796;-72
2023/07/08 03:16:34;;;;;;;6.07;4.88;;;;;;;17.61;79.83;101476.91;5056590;28;20028;-72
2023/07/08 03:19:00;;;;;;;7.85;4.75;;;;;;;17.56;79.96;101485.03;5059969;28;20044;-72
2023/07/08 03:21:25;;;;;;;8.82;4.80;;;;;;;17.57;79.55;101493.78;5061014;28;20032;-73
2023/07/08 03:23:51;;;;;;;6.47;4.70;;;;;;;17.49;78.78;101492.34;5054403;28;20032;-72
2023/07/08 03:26:20;;;;;;;5.90;4.50;;;;;;;17.52;79.86;101493.97;5055139;28;20111;-72
2023/07/08 03:28:47;;;;;;;6.28;4.88;;;;;;;17.47;80.78;101488.91;5057213;28;20021;-72
2023/07/08 03:31:12;;;;;;;6.88;4.57;;;;;;;17.41;80.76;101483.88;5057949;28;20044;-72
2023/07/08 03:33:38;;;;;;;6.80;4.80;;;;;;;17.41;80.72;101496.22;5059460;28;20033;-72
2023/07/08 03:36:22;;;;;;;7.40;5.43;;;;;;;17.40;80.36;101495.38;5055759;28;20029;-72
2023/07/08 03:38:48;;;;;;;8.13;4.50;;;;;;;17.38;81.17;101494.56;5051839;28;20385;-72
2023/07/08 03:41:14;;;;;;;7.68;4.70;;;;;;;17.35;80.41;101496.47;5056319;28;20032;-72
2023/07/08 03:43:39;;;;;;;6.20;5.32;;;;;;;17.41;79.96;101499.69;5062179;28;20024;-72
2023/07/08 03:46:04;;;;;;;7.88;5.20;;;;;;;17.37;80.11;101502.53;5063858;28;20419;-72
2023/07/08 03:48:29;;;;;;;9.30;5.50;;;;;;;17.36;81.03;101495.53;5056183;28;20040;-72
2023/07/08 03:50:55;;;;;;;7.80;5.15;;;;;;;17.30;82.09;101494.03;5054340;28;20056;-72
2023/07/08 03:53:20;;;;;;;6.82;5.07;;;;;;;17.29;82.76;101516.00;5059114;28;20031;-72
2023/07/08 03:55:45;;;;;;;5.60;5.00;;;;;;;17.32;84.61;101514.09;5062000;28;20032;-72
2023/07/08 03:58:11;;;;;;;7.97;5.38;;;;;;;17.32;84.48;101507.97;5055808;28;20155;-72
2023/07/08 04:00:36;;;;;;;6.97;5.65;;;;;;;17.27;84.02;101517.88;5062762;28;20408;-72
2023/07/08 04:03:02;;;;;;;9.80;6.15;;;;;;;17.24;85.23;101513.56;5064111;28;20024;-72
2023/07/08 04:05:27;;;;;;;8.75;4.93;;;;;;;17.29;84.88;101518.66;5056372;28;20717;-72
2023/07/08 04:07:53;;;;;;;5.97;5.10;;;;;;;17.23;86.20;101522.41;5053180;28;20059;-72
2023/07/08 04:10:18;;;;;;;7.15;5.00;;;;;;;17.15;86.08;101510.47;5061760;28;20028;-72
2023/07/08 04:12:43;;;;;;;7.38;5.60;;;;;;;17.14;85.91;101506.13;5057471;28;20044;-72
2023/07/08 04:15:09;;;;;;;7.40;5.60;;;;;;;17.18;87.24;101508.56;5058749;28;20144;-72
2023/07/08 04:17:40;;;;;;;9.23;6.00;;;;;;;17.20;86.67;101513.75;5059678;28;20029;-72
2023/07/08 04:20:06;;;;;;;7.78;6.20;;;;;;;17.28;87.22;101515.16;5051719;28;20025;-73
2023/07/08 04:22:31;;;;;;;8.30;6.65;;;;;;;17.29;86.51;101510.75;5055646;28;20025;-73
2023/07/08 04:24:57;;;;;;;8.32;7.00;;;;;;;17.36;85.29;101514.84;5056555;28;20112;-72
2023/07/08 04:27:22;;;;;;;8.50;7.28;;;;;;;17.35;85.02;101514.91;5059574;28;20033;-72
2023/07/08 04:29:48;;;;;;;11.38;7.47;;;;;;;17.37;85.64;101507.81;5055537;28;20038;-72
2023/07/08 04:32:13;;;;;;;10.63;7.75;;;;;;;17.41;85.38;101512.03;5054604;28;20147;-73
2023/07/08 04:34:38;;;;;;;10.65;7.28;;;;;;;17.47;86.36;101511.78;5052036;28;20040;-72
2023/07/08 04:37:04;;;;;;;9.02;6.97;;;;;;;17.47;86.29;101510.00;5054455;28;20092;-73
2023/07/08 04:39:30;;;;;;;9.38;7.28;;;;;;;17.43;86.78;101510.16;5060121;28;20476;-73
2023/07/08 04:41:56;;;;;;;9.38;7.25;;;;;;;17.42;87.72;101508.47;5057451;28;20521;-72
2023/07/08 04:44:22;;;;;;;8.50;7.20;;;;;;;17.47;86.93;101507.34;5063511;28;20044;-72
2023/07/08 04:46:50;;;;;;;7.88;6.85;;;;;;;17.51;86.55;101508.09;5061756;28;20091;-73
2023/07/08 04:49:16;;;;;;;8.88;7.03;;;;;;;17.56;87.19;101514.03;5057871;28;20108;-72
2023/07/08 04:51:42;;;;;;;9.20;6.63;;;;;;;17.65;86.42;101504.84;5053850;28;20502;-73
2023/07/08 04:54:07;;;;;;;7.22;6.38;;;;;;;17.69;87.04;101506.44;5057866;28;20503;-73
2023/07/08 04:56:46;;;;;;;9.55;6.20;;;;;;;17.80;87.47;101509.53;5061514;28;22158;-73
2023/07/08 04:59:13;;;;;;;8.65;6.28;;;;;;;17.89;87.37;101503.84;5056538;28;20372;-72
2023/07/08 05:01:39;;;;;;;10.57;6.20;;;;;;;17.96;86.80;101500.03;5059294;28;20369;-72
2023/07/08 05:04:05;;;;;;;7.28;6.50;;;;;;;18.00;86.92;101495.47;5054150;28;20024;-72
2023/07/08 05:06:32;;;;;;;8.60;6.50;;;;;;;18.14;84.57;101503.63;5051837;28;20029;-72
2023/07/08 05:09:02;;;;;;;13.57;7.07;;;;;;;18.15;83.01;101502.72;5053213;28;20119;-72
2023/07/08 05:11:27;;;;;;;10.57;6.30;;;;;;;18.18;82.47;101501.69;5058657;28;20480;-72
2023/07/08 05:13:53;;;;;;;9.25;6.05;;;;;;;18.19;82.30;101506.91;5059778;28;20071;-72
2023/07/08 05:16:18;;;;;;;8.95;5.28;;;;;;;18.09;81.82;101488.94;5060058;28;20049;-72
2023/07/08 05:18:44;;;;;;;8.27;5.35;;;;;;;18.16;83.30;101511.47;5058381;28;20024;-72
2023/07/08 05:21:10;;;;;;;5.90;4.97;;;;;;;18.17;83.59;101507.91;5054102;28;20032;-72
2023/07/08 05:23:35;;;;;;;7.65;5.90;;;;;;;18.13;82.29;101508.97;5053930;28;20384;-72
2023/07/08 05:26:02;;;;;;;9.95;5.55;;;;;;;18.10;83.54;101514.38;5059380;28;20385;-72
2023/07/08 05:28:28;;;;;;;6.93;5.20;;;;;;;18.14;84.32;101511.53;5052042;28;20052;-72
2023/07/08 05:30:57;;;;;;;9.85;5.35;;;;;;;18.14;82.94;101510.69;5058324;28;20488;-72
2023/07/08 05:33:24;;;;;;;8.13;5.07;;;;;;;18.18;82.04;101507.84;5057659;28;20075;-72
2023/07/08 05:35:49;;;;;;;8.80;5.28;;;;;;;18.32;81.52;101493.19;5051011;28;20043;-72
2023/07/08 05:38:15;;;;;;;8.45;5.95;;;;;;;18.43;80.43;101499.66;5059027;28;20032;-72
2023/07/08 05:40:40;;;;;;;7.45;5.13;;;;;;;18.56;78.82;101494.66;5055476;28;20063;-72
2023/07/08 05:43:06;;;;;;;7.63;5.82;;;;;;;18.63;79.02;101500.53;5062022;28;20457;-72
2023/07/08 05:45:31;;;;;;;8.68;5.80;;;;;;;18.70;79.20;101497.53;5070287;28;20032;-73
2023/07/08 05:47:57;;;;;;;8.85;6.22;;;;;;;18.83;78.38;101500.47;5064180;28;20024;-72
2023/07/08 05:50:22;;;;;;;8.90;6.10;;;;;;;18.86;78.07;101487.13;5055696;28;20033;-73
2023/07/08 05:52:47;;;;;;;7.10;5.30;;;;;;;18.97;77.25;101489.25;5057404;28;20051;-73
2023/07/08 05:55:13;;;;;;;11.32;5.88;;;;;;;19.10;77.95;101497.44;5066318;28;20469;-73
2023/07/08 05:57:38;;;;;;;9.93;6.03;;;;;;;19.07;76.24;101487.88;5066712;28;20032;-72
2023/07/08 06:00:05;;;;;;;8.63;6.03;;;;;;;19.23;77.06;101495.03;5060133;28;20443;-72
2023/07/08 06:02:30;;;;;;;10.18;6.40;;;;;;;19.32;75.77;101499.88;5055350;28;20029;-72
2023/07/08 06:04:55;;;;;;;9.10;6.30;;;;;;;19.37;74.43;101503.16;5058700;28;20111;-73
2023/07/08 06:07:21;;;;;;;13.45;6.47;;;;;;;19.48;74.26;101507.91;5055084;28;20036;-73
2023/07/08 06:09:46;;;;;;;11.52;6.55;;;;;;;19.51;74.20;101502.47;5056017;28;20021;-73
2023/07/08 06:12:12;;;;;;;9.15;5.97;;;;;;;19.61;74.91;101506.34;5058971;28;20017;-72
2023/07/08 06:14:38;;;;;;;9.43;6.68;;;;;;;19.58;73.75;101501.22;5061526;28;20032;-73
2023/07/08 06:17:04;;;;;;;9.05;5.82;;;;;;;19.76;72.01;101508.25;5064553;28;20020;-72
2023/07/08 06:19:29;;;;;;;8.63;5.60;;;;;;;19.85;72.75;101510.44;5058418;28;20032;-73
2023/07/08 06:21:54;;;;;;;11.27;5.90;;;;;;;19.95;74.61;101510.81;5056672;28;20025;-73
2023/07/08 06:24:20;;;;;;;9.90;6.03;;;;;;;20.08;73.06;101513.69;5055169;28;20036;-72
2023/07/08 06:26:46;;;;;;;9.27;5.97;;;;;;;20.14;72.48;101505.38;5056554;28;20068;-73
2023/07/08 06:29:11;;;;;;;8.52;5.55;;;;;;;20.26;73.26;101507.38;5059480;28;20099;-73
2023/07/08 06:31:37;;;;;;;10.75;6.22;;;;;;;20.35;70.79;101508.69;5056824;28;20116;-73
2023/07/08 06:34:03;;;;;;;9.88;5.95;;;;;;;20.43;70.84;101505.63;5065294;28;20028;-73
2023/07/08 06:36:29;;;;;;;17.42;5.85;;;;;;;20.52;70.21;101513.09;5055701;28;20021;-73
2023/07/08 06:38:55;;;;;;;10.30;5.68;;;;;;;20.63;68.23;101513.34;5060295;28;20082;-73
2023/07/08 06:41:20;;;;;;;8.88;5.97;;;;;;;20.68;66.82;101506.03;5064394;28;20039;-72
2023/07/08 06:43:45;;;;;;;10.02;5.63;;;;;;;20.77;66.55;101504.66;5059150;28;20052;-72
2023/07/08 06:46:11;;;;;;;8.68;6.07;;;;;;;20.84;67.62;101500.72;5066777;28;20107;-72
2023/07/08 06:48:36;;;;;;;8.63;5.78;;;;;;;20.97;66.15;101522.09;5052479;28;20070;-73
2023/07/08 06:51:02;;;;;;;10.40;6.28;;;;;;;21.02;66.34;101515.56;5058763;28;20056;-72
2023/07/08 06:53:27;;;;;;;9.20;5.80;;;;;;;21.15;66.30;101513.09;5061737;28;20033;-72
2023/07/08 06:55:53;;;;;;;11.15;5.80;;;;;;;21.16;64.73;101501.56;5061374;28;20427;-73
2023/07/08 06:58:18;;;;;;;9.70;5.38;;;;;;;21.28;64.00;101498.19;5066024;28;20029;-72
2023/07/08 07:00:44;;;;;;;8.68;6.13;;;;;;;21.42;63.20;101496.59;5064240;28;20043;-72
2023/07/08 07:03:10;;;;;;;8.70;5.47;;;;;;;21.53;63.62;101488.84;5061445;28;20032;-72
2023/07/08 07:05:36;;;;;;;7.38;5.78;;;;;;;21.64;63.44;101498.78;5061145;28;20040;-72
2023/07/08 07:08:02;;;;;;;9.45;5.45;;;;;;;21.74;61.98;101503.50;5054721;28;20485;-72
2023/07/08 07:10:27;;;;;;;10.60;6.13;;;;;;;21.79;60.94;101505.00;5063529;28;20490;-73
2023/07/08 07:12:52;;;;;;;8.38;6.45;;;;;;;21.85;59.17;101504.63;5057560;28;20537;-72
2023/07/08 07:15:18;;;;;;;10.63;6.05;;;;;;;21.93;61.25;101494.41;5060760;28;20511;-72
2023/07/08 07:17:43;;;;;;;8.55;5.93;;;;;;;21.98;60.52;101494.97;5059409;28;20021;-72
2023/07/08 07:20:08;;;;;;;12.43;6.80;;;;;;;22.05;57.31;101491.00;5059323;28;20057;-71
2023/07/08 07:22:34;;;;;;;10.20;5.90;;;;;;;22.13;59.19;101498.47;5060545;28;20035;-71
2023/07/08 07:25:01;;;;;;;12.20;6.05;;;;;;;22.18;57.79;101497.28;5053496;28;20074;-71
2023/07/08 07:27:26;;;;;;;8.65;6.22;;;;;;;22.33;58.10;101497.28;5060685;28;20029;-72
2023/07/08 07:29:52;;;;;;;8.60;5.95;;;;;;;22.41;58.26;101493.19;5056523;28;20404;-72
2023/07/08 07:32:21;;;;;;;7.88;6.32;;;;;;;22.52;58.40;101499.63;5054264;28;20041;-72
2023/07/08 07:34:53;;;;;;;10.40;6.43;;;;;;;22.64;57.99;101505.03;5064345;28;20032;-72
2023/07/08 07:37:20;;;;;;;8.60;6.25;;;;;;;22.75;56.18;101503.47;5065173;28;20400;-72
2023/07/08 07:39:46;;;;;;;9.85;6.47;;;;;;;22.83;56.48;101501.19;5062899;28;20025;-72
2023/07/08 07:42:14;;;;;;;10.85;6.47;;;;;;;22.93;56.41;101509.44;5059658;28;20025;-71
2023/07/08 07:44:39;;;;;;;11.43;6.43;;;;;;;22.98;57.87;101492.25;5056956;28;20698;-73
2023/07/08 07:47:05;;;;;;;8.02;5.70;;;;;;;23.09;56.73;101499.53;5057870;28;20469;-71
2023/07/08 07:49:31;;;;;;;11.25;6.72;;;;;;;23.21;57.33;101500.50;5053346;28;20127;-71
2023/07/08 07:51:56;;;;;;;9.80;6.30;;;;;;;23.36;56.82;101497.69;5053200;28;20065;-71
2023/07/08 07:54:22;;;;;;;13.30;6.57;;;;;;;23.50;55.21;101488.78;5057259;28;20036;-71
2023/07/08 07:56:47;;;;;;;10.05;6.55;;;;;;;23.60;54.45;101499.66;5063064;28;20031;-71
2023/07/08 07:59:12;;;;;;;11.93;6.60;;;;;;;23.56;54.05;101463.56;5057568;28;20123;-71
2023/07/08 08:01:38;;;;;;;11.13;6.22;;;;;;;23.84;54.94;101486.53;5061453;28;20033;-72
2023/07/08 08:04:03;;;;;;;12.02;6.13;;;;;;;23.91;53.62;101487.78;5057779;28;20068;-72
2023/07/08 08:06:29;;;;;;;12.43;7.10;;;;;;;23.98;54.63;101494.38;5059837;28;20025;-72
2023/07/08 08:08:56;;;;;;;8.70;6.38;;;;;;;24.12;53.50;101489.91;5060644;28;20036;-71
2023/07/08 08:11:21;;;;;;;12.18;7.05;;;;;;;24.19;53.88;101492.03;5059590;28;20407;-73
2023/07/08 08:13:46;;;;;;;10.55;6.68;;;;;;;24.35;52.61;101502.44;5059992;28;20032;-71
2023/07/08 08:16:12;;;;;;;10.48;6.57;;;;;;;24.54;51.61;101499.34;5059086;28;20136;-72
2023/07/08 08:18:37;;;;;;;9.65;6.70;;;;;;;24.67;51.05;101502.84;5055219;28;20030;-72
2023/07/08 08:21:03;;;;;;;12.20;6.78;;;;;;;24.69;51.80;101494.75;5061722;28;20028;-72
2023/07/08 08:23:28;;;;;;;9.05;6.07;;;;;;;24.91;51.09;101508.19;5053780;28;20059;-72
2023/07/08 08:25:53;;;;;;;11.60;6.93;;;;;;;25.00;50.20;101509.34;5061877;28;20036;-74
2023/07/08 08:28:19;;;;;;;7.95;6.35;;;;;;;25.14;49.99;101508.34;5053289;28;20036;-71
2023/07/08 08:30:48;;;;;;;12.10;7.32;;;;;;;25.22;49.97;101513.97;5054933;28;20037;-72
2023/07/08 08:33:13;;;;;;;10.75;7.05;;;;;;;25.33;47.78;101515.81;5057533;28;20086;-73
2023/07/08 08:35:42;;;;;;;11.70;7.43;;;;;;;25.34;48.60;101512.19;5052504;28;20033;-79
2023/07/08 08:38:08;;;;;;;12.85;7.70;;;;;;;25.42;48.95;101520.47;5059734;28;20107;-72
2023/07/08 08:40:33;;;;;;;12.55;7.55;;;;;;;25.58;47.53;101520.16;5065531;28;20037;-72
2023/07/08 08:43:01;;;;;;;10.55;7.03;;;;;;;25.68;49.00;101513.16;5057511;28;20384;-72
2023/07/08 08:45:31;;;;;;;12.05;7.25;;;;;;;25.80;47.92;101517.59;5055498;28;20040;-75
2023/07/08 08:48:03;;;;;;;9.32;7.40;;;;;;;25.98;47.44;101517.13;5054536;28;20029;-72
2023/07/08 08:50:47;;;;;;;11.07;7.13;;;;;;;26.07;46.87;101516.41;5061786;28;20033;-71
2023/07/08 08:53:16;;;;;;;14.05;7.22;;;;;;;26.24;46.68;101518.59;5057402;28;20036;-72
2023/07/08 08:55:42;;;;;;;10.88;7.55;;;;;;;26.36;45.40;101514.97;5060023;28;20047;-74
2023/07/08 08:58:36;;;;;;;10.75;7.25;;;;;;;26.51;43.69;101522.75;5052779;28;20049;-73
2023/07/08 09:01:07;;;;;;;10.45;7.30;;;;;;;26.67;43.77;101523.22;5055933;28;20121;-75
2023/07/08 09:03:41;;;;;;;9.93;7.07;;;;;;;26.75;45.15;101525.25;5057389;28;20024;-73
2023/07/08 09:06:18;;;;;;;12.90;7.88;;;;;;;26.84;43.57;101528.03;5051454;28;20087;-74
2023/07/08 09:08:44;;;;;;;12.88;7.38;;;;;;;27.03;42.11;101530.06;5055603;28;20028;-73
2023/07/08 09:11:34;;;;;;;9.73;7.40;;;;;;;27.13;43.42;101522.16;5047842;28;20528;-73
2023/07/08 09:13:59;;;;;;;8.52;6.88;;;;;;;27.23;43.34;101517.75;5058491;28;20044;-73
2023/07/08 09:16:29;;;;;;;11.23;7.72;;;;;;;27.43;43.40;101507.19;5057255;28;20354;-74
2023/07/08 09:18:57;;;;;;;10.18;7.78;;;;;;;27.42;43.43;101500.16;5059652;28;20488;-73
2023/07/08 09:21:51;;;;;;;11.85;7.43;;;;;;;27.46;43.81;101507.78;5063294;28;20119;-73
2023/07/08 09:24:29;;;;;;;14.45;7.85;;;;;;;27.57;42.59;101501.53;5060770;28;20021;-73
2023/07/08 09:26:58;;;;;;;10.23;7.53;;;;;;;27.61;43.01;101511.00;5060789;28;20029;-73
2023/07/08 09:29:23;;;;;;;13.88;8.15;;;;;;;27.80;40.88;101514.81;5052501;28;20037;-73
2023/07/08 09:31:49;;;;;;;11.32;7.65;;;;;;;27.95;39.37;101518.84;5056284;28;20390;-71
2023/07/08 09:34:18;;;;;;;9.50;7.65;;;;;;;27.94;40.86;101506.44;5066403;28;20078;-71
2023/07/08 09:36:47;;;;;;;10.88;7.72;;;;;;;28.18;41.04;101504.28;5050770;28;20098;-71
2023/07/08 09:39:15;;;;;;;9.48;7.55;;;;;;;28.35;38.79;101504.63;5060565;28;20384;-73
2023/07/08 09:41:42;;;;;;;10.77;7.47;;;;;;;28.46;40.76;101486.66;5050131;28;20021;-71
2023/07/08 09:44:10;;;;;;;12.05;8.00;;;;;;;28.74;41.21;101492.19;5060315;28;20116;-71
2023/07/08 09:46:37;;;;;;;11.05;8.02;;;;;;;28.84;41.51;101486.84;5065695;28;20048;-72
2023/07/08 09:49:29;;;;;;;10.48;7.55;;;;;;;28.97;41.76;101490.09;5060713;28;20415;-72
2023/07/08 09:51:54;;;;;;;11.05;7.60;;;;;;;29.05;39.83;101501.03;5049831;28;20025;-71
2023/07/08 09:54:22;;;;;;;12.75;8.10;;;;;;;29.10;39.39;101495.25;5060522;28;20389;-71
2023/07/08 09:57:01;;;;;;;12.18;7.20;;;;;;;29.21;40.02;101492.44;5064715;28;20047;-71
2023/07/08 09:59:31;;;;;;;12.32;7.75;;;;;;;29.27;38.19;101493.72;5059856;28;20033;-72
2023/07/08 10:01:59;;;;;;;9.07;7.18;;;;;;;29.29;39.44;101489.03;5064077;28;20035;-71
2023/07/08 10:04:25;;;;;;;10.15;7.40;;;;;;;29.43;38.58;101490.41;5059386;28;20028;-71
2023/07/08 10:06:52;;;;;;;11.23;7.22;;;;;;;29.46;37.70;101495.50;5064272;28;20418;-71
2023/07/08 10:09:21;;;;;;;12.60;7.85;;;;;;;29.34;38.55;101482.25;5060023;28;20029;-72
2023/07/08 10:11:54;;;;;;;10.52;7.82;;;;;;;29.52;36.28;101494.94;5062904;28;20021;-71
2023/07/08 10:14:33;;;;;;;8.93;7.38;;;;;;;29.64;38.27;101485.75;5059755;28;20025;-71
2023/07/08 10:16:59;;;;;;;11.27;8.30;;;;;;;29.63;38.64;101494.81;5064581;28;20040;-72
2023/07/08 10:19:24;;;;;;;13.23;7.55;;;;;;;29.65;40.22;101489.28;5058017;28;20361;-72
2023/07/08 10:22:27;;;;;;;10.48;7.40;;;;;;;29.75;39.70;101498.16;5057863;28;20108;-71
2023/07/08 10:25:10;;;;;;;11.32;7.32;;;;;;;29.86;38.05;101495.34;5058325;28;20045;-71
2023/07/08 10:27:57;;;;;;;11.13;7.50;;;;;;;29.92;38.85;101492.06;5051172;28;20055;-71
2023/07/08 10:30:25;;;;;;;11.50;8.02;;;;;;;30.08;37.57;101494.97;5062619;28;20087;-72
2023/07/08 10:32:54;;;;;;;10.00;7.68;;;;;;;30.28;39.49;101493.09;5059791;28;20029;-71
2023/07/08 10:35:28;;;;;;;10.85;7.45;;;;;;;30.43;36.87;101493.41;5064124;28;20487;-71
2023/07/08 10:38:12;;;;;;;15.20;8.27;;;;;;;30.52;36.89;101488.97;5059528;28;20112;-71
2023/07/08 10:40:59;;;;;;;11.10;7.40;;;;;;;30.68;37.89;101491.00;5053892;28;20036;-71
2023/07/08 10:43:46;;;;;;;10.45;7.25;;;;;;;30.70;35.54;101494.38;5057241;28;20028;-71
2023/07/08 10:46:45;;;;;;;11.60;7.60;;;;;;;30.71;36.95;101496.09;5058351;28;20025;-71
2023/07/08 10:49:36;;;;;;;15.32;7.78;;;;;;;30.73;36.50;101500.31;5062469;28;20024;-71
2023/07/08 10:52:35;;;;;;;11.27;7.85;;;;;;;30.86;35.55;101499.97;5053720;28;20041;-71
2023/07/08 10:55:37;;;;;;;11.40;7.78;;;;;;;31.08;35.94;101504.06;5057644;28;20124;-71
2023/07/08 10:58:21;;;;;;;11.68;7.03;;;;;;;31.20;36.38;101504.69;5054702;28;20037;-71
2023/07/08 11:00:57;;;;;;;9.10;7.10;;;;;;;31.27;35.76;101500.38;5060314;28;20047;-71
2023/07/08 11:03:58;;;;;;;10.98;7.18;;;;;;;31.46;35.36;101494.84;5058719;28;20031;-71
2023/07/08 11:06:35;;;;;;;11.75;7.25;;;;;;;31.54;34.42;101499.44;5048679;28;20037;-71
2023/07/08 11:09:04;;;;;;;11.63;7.82;;;;;;;31.65;32.81;101492.91;5057424;28;20461;-71
2023/07/08 11:12:04;;;;;;;10.40;8.02;;;;;;;31.76;35.24;101487.28;5060876;28;20538;-71
2023/07/08 11:14:40;;;;;;;11.32;8.05;;;;;;;31.99;34.58;101500.25;5054574;28;20041;-72
2023/07/08 11:17:25;;;;;;;12.00;7.78;;;;;;;32.09;34.80;101485.63;5062189;28;20047;-71
2023/07/08 11:20:02;;;;;;;14.90;7.82;;;;;;;32.26;36.35;101491.94;5054869;28;20120;-72
2023/07/08 11:22:29;;;;;;;10.73;7.57;;;;;;;32.41;34.13;101490.34;5047626;28;20112;-71
2023/07/08 11:24:57;;;;;;;12.30;7.72;;;;;;;32.49;33.90;101488.69;5055882;28;20040;-72
2023/07/08 11:27:28;;;;;;;8.98;7.20;;;;;;;32.64;33.19;101489.75;5056397;28;20035;-72
2023/07/08 11:29:58;;;;;;;10.13;7.97;;;;;;;32.75;34.33;101486.72;5058842;28;20037;-72